Terminal Aerodrome Forecast
Issued by NWS Tampa Bay Area, FL

Home | Current Version | Previous Version | Text Only | Print | Product List | Glossary On
Versions: 1 2 3 4 5 6 7 8 9 10 11 12 13 14 15 16 17 18 19 20 21 22 23 24 25 26 27
000
FTUS42 KTBW 300856 AAA
TAFTPA
TAF AMD
KTPA 300856Z 3009/3106 05004KT P6SM FEW010 BKN250
     FM301400 12005KT P6SM FEW020 SCT050 BKN250
     FM301600 14006KT P6SM VCTS SCT020CB BKN050
      TEMPO 3016/3020 3SM SHRA BKN020
     FM302000 09006KT P6SM VCTS SCT020CB BKN050
      TEMPO 3020/3024 3SM SHRA BKN020
     FM310100 11005KT P6SM VCSH SCT020 BKN050=

USA.gov is the U.S. government's official web portal to all federal, state and local government web resources and services.